sensor_id;sensor_type;location;lat;lon;timestamp;P1;durP1;ratioP1;P2;durP2;ratioP2
33421;SDS011;19763;55.798;37.782;2022-09-09T08:00:22;2.90;;;0.82;;
33421;SDS011;19763;55.798;37.782;2022-09-09T08:02:48;0.70;;;0.68;;
33421;SDS011;19763;55.798;37.782;2022-09-09T08:05:14;1.67;;;0.93;;
33421;SDS011;19763;55.798;37.782;2022-09-09T08:07:41;1.50;;;1.08;;
33421;SDS011;19763;55.798;37.782;2022-09-09T08:10:06;1.38;;;0.90;;
33421;SDS011;19763;55.798;37.782;2022-09-09T08:12:32;1.15;;;0.80;;
33421;SDS011;19763;55.798;37.782;2022-09-09T08:14:58;0.82;;;0.82;;
33421;SDS011;19763;55.798;37.782;2022-09-09T08:17:23;1.17;;;1.00;;
33421;SDS011;19763;55.798;37.782;2022-09-09T08:19:49;2.58;;;0.90;;
33421;SDS011;19763;55.798;37.782;2022-09-09T08:22:15;1.52;;;0.93;;
33421;SDS011;19763;55.798;37.782;2022-09-09T08:24:40;1.85;;;1.10;;
33421;SDS011;19763;55.798;37.782;2022-09-09T08:27:06;1.00;;;0.90;;
33421;SDS011;19763;55.798;37.782;2022-09-09T08:29:32;2.08;;;1.10;;
33421;SDS011;19763;55.798;37.782;2022-09-09T08:31:58;1.30;;;0.95;;
33421;SDS011;19763;55.798;37.782;2022-09-09T08:34:25;3.97;;;1.25;;
33421;SDS011;19763;55.798;37.782;2022-09-09T08:36:52;1.30;;;1.20;;
33421;SDS011;19763;55.798;37.782;2022-09-09T08:39:19;1.98;;;1.13;;
33421;SDS011;19763;55.798;37.782;2022-09-09T09:03:22;2.15;;;1.90;;
33421;SDS011;19763;55.798;37.782;2022-09-09T09:06:11;0.82;;;0.82;;
33421;SDS011;19763;55.798;37.782;2022-09-09T09:12:15;1.92;;;1.10;;
33421;SDS011;19763;55.798;37.782;2022-09-09T09:14:42;1.70;;;1.00;;
33421;SDS011;19763;55.798;37.782;2022-09-09T09:17:14;2.80;;;1.38;;
33421;SDS011;19763;55.798;37.782;2022-09-09T09:19:44;1.00;;;0.90;;
33421;SDS011;19763;55.798;37.782;2022-09-09T09:27:32;1.10;;;1.00;;
33421;SDS011;19763;55.798;37.782;2022-09-09T09:30:01;1.05;;;0.80;;
33421;SDS011;19763;55.798;37.782;2022-09-09T09:32:38;2.55;;;1.30;;
33421;SDS011;19763;55.798;37.782;2022-09-09T09:35:12;3.42;;;1.33;;
33421;SDS011;19763;55.798;37.782;2022-09-09T09:37:39;1.25;;;1.15;;
33421;SDS011;19763;55.798;37.782;2022-09-09T09:40:09;2.60;;;1.08;;
33421;SDS011;19763;55.798;37.782;2022-09-09T09:42:37;2.35;;;1.05;;
33421;SDS011;19763;55.798;37.782;2022-09-09T09:45:54;1.05;;;0.73;;
33421;SDS011;19763;55.798;37.782;2022-09-09T09:48:13;2.03;;;1.08;;
33421;SDS011;19763;55.798;37.782;2022-09-09T09:50:49;0.95;;;0.80;;
33421;SDS011;19763;55.798;37.782;2022-09-09T09:53:25;1.60;;;0.85;;
33421;SDS011;19763;55.798;37.782;2022-09-09T09:56:06;2.00;;;0.80;;
33421;SDS011;19763;55.798;37.782;2022-09-09T10:01:24;1.15;;;0.60;;
33421;SDS011;19763;55.798;37.782;2022-09-09T10:04:12;1.42;;;0.80;;
33421;SDS011;19763;55.798;37.782;2022-09-09T10:06:38;2.33;;;1.00;;
33421;SDS011;19763;55.798;37.782;2022-09-09T10:12:14;1.88;;;0.85;;
33421;SDS011;19763;55.798;37.782;2022-09-09T10:48:33;3.00;;;0.60;;
33421;SDS011;19763;55.798;37.782;2022-09-09T10:57:31;1.88;;;0.98;;
33421;SDS011;19763;55.798;37.782;2022-09-09T11:00:18;1.77;;;0.80;;
33421;SDS011;19763;55.798;37.782;2022-09-09T11:03:03;1.08;;;0.80;;
33421;SDS011;19763;55.798;37.782;2022-09-09T11:05:38;1.02;;;0.95;;
33421;SDS011;19763;55.798;37.782;2022-09-09T11:16:25;1.67;;;1.02;;
33421;SDS011;19763;55.798;37.782;2022-09-09T11:19:01;1.10;;;0.60;;
33421;SDS011;19763;55.798;37.782;2022-09-09T11:21:46;3.05;;;0.70;;
33421;SDS011;19763;55.798;37.782;2022-09-09T11:24:35;1.10;;;0.77;;
33421;SDS011;19763;55.798;37.782;2022-09-09T11:27:26;2.83;;;1.10;;
33421;SDS011;19763;55.798;37.782;2022-09-09T11:38:04;0.80;;;0.80;;
33421;SDS011;19763;55.798;37.782;2022-09-09T11:40:59;1.70;;;0.77;;
33421;SDS011;19763;55.798;37.782;2022-09-09T11:43:29;1.55;;;0.75;;
33421;SDS011;19763;55.798;37.782;2022-09-09T11:45:58;1.58;;;0.82;;
33421;SDS011;19763;55.798;37.782;2022-09-09T11:48:32;1.98;;;0.90;;
33421;SDS011;19763;55.798;37.782;2022-09-09T11:51:09;5.18;;;1.00;;
33421;SDS011;19763;55.798;37.782;2022-09-09T11:54:46;1.77;;;1.00;;
33421;SDS011;19763;55.798;37.782;2022-09-09T11:56:54;3.00;;;1.23;;
33421;SDS011;19763;55.798;37.782;2022-09-09T11:59:24;1.00;;;0.90;;
33421;SDS011;19763;55.798;37.782;2022-09-09T12:06:54;1.55;;;1.10;;
33421;SDS011;19763;55.798;37.782;2022-09-09T12:19:41;2.70;;;1.20;;
33421;SDS011;19763;55.798;37.782;2022-09-09T12:22:11;1.92;;;0.73;;
33421;SDS011;19763;55.798;37.782;2022-09-09T12:27:36;0.90;;;0.90;;
33421;SDS011;19763;55.798;37.782;2022-09-09T12:30:12;0.82;;;0.82;;
33421;SDS011;19763;55.798;37.782;2022-09-09T12:32:40;1.15;;;0.82;;
33421;SDS011;19763;55.798;37.782;2022-09-09T12:35:26;0.95;;;0.80;;
33421;SDS011;19763;55.798;37.782;2022-09-09T12:37:56;1.02;;;1.00;;
33421;SDS011;19763;55.798;37.782;2022-09-09T12:40:27;1.58;;;0.85;;
33421;SDS011;19763;55.798;37.782;2022-09-09T12:43:00;1.17;;;1.08;;
33421;SDS011;19763;55.798;37.782;2022-09-09T12:45:28;3.97;;;1.45;;
33421;SDS011;19763;55.798;37.782;2022-09-09T12:48:00;1.35;;;1.05;;
33421;SDS011;19763;55.798;37.782;2022-09-09T12:50:36;1.55;;;1.23;;
33421;SDS011;19763;55.798;37.782;2022-09-09T12:53:08;4.53;;;1.40;;
33421;SDS011;19763;55.798;37.782;2022-09-09T12:55:48;1.55;;;0.90;;
33421;SDS011;19763;55.798;37.782;2022-09-09T12:58:21;1.90;;;1.10;;
33421;SDS011;19763;55.798;37.782;2022-09-09T13:00:53;1.60;;;1.30;;
33421;SDS011;19763;55.798;37.782;2022-09-09T13:03:23;2.00;;;1.42;;
33421;SDS011;19763;55.798;37.782;2022-09-09T13:05:50;2.13;;;1.38;;
33421;SDS011;19763;55.798;37.782;2022-09-09T13:08:17;1.88;;;1.60;;
33421;SDS011;19763;55.798;37.782;2022-09-09T13:10:57;4.70;;;1.30;;
33421;SDS011;19763;55.798;37.782;2022-09-09T13:13:26;3.50;;;1.60;;
33421;SDS011;19763;55.798;37.782;2022-09-09T13:15:56;3.25;;;1.50;;
33421;SDS011;19763;55.798;37.782;2022-09-09T13:18:29;1.20;;;1.10;;
33421;SDS011;19763;55.798;37.782;2022-09-09T13:20:58;4.25;;;1.65;;
33421;SDS011;19763;55.798;37.782;2022-09-09T13:23:26;4.15;;;1.58;;
33421;SDS011;19763;55.798;37.782;2022-09-09T13:26:01;1.83;;;1.27;;
33421;SDS011;19763;55.798;37.782;2022-09-09T13:28:47;2.90;;;1.40;;
33421;SDS011;19763;55.798;37.782;2022-09-09T13:31:24;3.63;;;1.60;;
33421;SDS011;19763;55.798;37.782;2022-09-09T13:33:54;3.92;;;1.10;;
33421;SDS011;19763;55.798;37.782;2022-09-09T13:36:29;1.13;;;1.02;;
33421;SDS011;19763;55.798;37.782;2022-09-09T13:38:58;2.85;;;1.20;;
33421;SDS011;19763;55.798;37.782;2022-09-09T13:41:25;1.92;;;1.20;;
33421;SDS011;19763;55.798;37.782;2022-09-09T13:43:56;5.63;;;1.60;;
33421;SDS011;19763;55.798;37.782;2022-09-09T13:46:24;1.38;;;1.27;;
33421;SDS011;19763;55.798;37.782;2022-09-09T13:51:49;2.47;;;1.40;;
33421;SDS011;19763;55.798;37.782;2022-09-09T13:54:20;2.67;;;1.15;;
33421;SDS011;19763;55.798;37.782;2022-09-09T13:56:46;1.38;;;1.20;;
33421;SDS011;19763;55.798;37.782;2022-09-09T13:59:13;5.93;;;1.67;;
33421;SDS011;19763;55.798;37.782;2022-09-09T14:01:40;1.35;;;1.10;;
33421;SDS011;19763;55.798;37.782;2022-09-09T14:04:06;2.92;;;1.25;;
33421;SDS011;19763;55.798;37.782;2022-09-09T14:06:37;1.35;;;1.20;;
33421;SDS011;19763;55.798;37.782;2022-09-09T14:09:05;1.73;;;1.20;;
33421;SDS011;19763;55.798;37.782;2022-09-09T14:11:31;3.47;;;1.10;;
33421;SDS011;19763;55.798;37.782;2022-09-09T14:13:57;2.47;;;1.40;;
33421;SDS011;19763;55.798;37.782;2022-09-09T14:16:22;1.30;;;1.20;;
33421;SDS011;19763;55.798;37.782;2022-09-09T14:18:48;1.30;;;1.08;;
33421;SDS011;19763;55.798;37.782;2022-09-09T14:21:14;3.13;;;1.35;;
33421;SDS011;19763;55.798;37.782;2022-09-09T14:23:40;1.35;;;1.25;;
33421;SDS011;19763;55.798;37.782;2022-09-09T14:26:07;3.03;;;1.30;;
33421;SDS011;19763;55.798;37.782;2022-09-09T14:28:33;2.40;;;1.23;;
33421;SDS011;19763;55.798;37.782;2022-09-09T14:31:00;3.22;;;1.20;;
33421;SDS011;19763;55.798;37.782;2022-09-09T14:33:27;3.67;;;1.40;;
33421;SDS011;19763;55.798;37.782;2022-09-09T14:35:56;1.40;;;1.20;;
33421;SDS011;19763;55.798;37.782;2022-09-09T14:38:22;3.92;;;1.35;;
33421;SDS011;19763;55.798;37.782;2022-09-09T14:40:48;4.18;;;2.05;;
33421;SDS011;19763;55.798;37.782;2022-09-09T14:43:14;5.57;;;1.60;;
33421;SDS011;19763;55.798;37.782;2022-09-09T14:45:39;3.40;;;1.80;;
33421;SDS011;19763;55.798;37.782;2022-09-09T14:48:05;4.13;;;1.80;;
33421;SDS011;19763;55.798;37.782;2022-09-09T14:50:31;5.93;;;2.45;;
33421;SDS011;19763;55.798;37.782;2022-09-09T14:52:57;4.88;;;2.03;;
33421;SDS011;19763;55.798;37.782;2022-09-09T14:55:22;3.92;;;2.00;;
33421;SDS011;19763;55.798;37.782;2022-09-09T14:57:48;7.07;;;1.95;;
33421;SDS011;19763;55.798;37.782;2022-09-09T15:00:14;3.63;;;1.80;;
33421;SDS011;19763;55.798;37.782;2022-09-09T15:02:40;4.22;;;1.73;;
33421;SDS011;19763;55.798;37.782;2022-09-09T15:05:06;5.65;;;1.73;;
33421;SDS011;19763;55.798;37.782;2022-09-09T15:07:32;2.35;;;1.55;;
33421;SDS011;19763;55.798;37.782;2022-09-09T15:09:59;3.85;;;1.45;;
33421;SDS011;19763;55.798;37.782;2022-09-09T15:12:24;4.47;;;1.48;;
33421;SDS011;19763;55.798;37.782;2022-09-09T15:14:50;4.63;;;1.52;;
33421;SDS011;19763;55.798;37.782;2022-09-09T15:17:16;5.05;;;1.42;;
33421;SDS011;19763;55.798;37.782;2022-09-09T15:19:41;4.47;;;1.65;;
33421;SDS011;19763;55.798;37.782;2022-09-09T15:22:07;3.63;;;1.83;;
33421;SDS011;19763;55.798;37.782;2022-09-09T15:24:34;5.78;;;1.85;;
33421;SDS011;19763;55.798;37.782;2022-09-09T15:27:00;3.65;;;1.75;;
33421;SDS011;19763;55.798;37.782;2022-09-09T15:29:26;5.05;;;2.00;;
33421;SDS011;19763;55.798;37.782;2022-09-09T15:31:53;2.45;;;1.63;;
33421;SDS011;19763;55.798;37.782;2022-09-09T15:34:20;4.20;;;2.30;;
33421;SDS011;19763;55.798;37.782;2022-09-09T15:36:47;6.40;;;1.90;;
33421;SDS011;19763;55.798;37.782;2022-09-09T15:39:16;7.47;;;2.60;;
33421;SDS011;19763;55.798;37.782;2022-09-09T15:41:43;5.57;;;2.10;;
33421;SDS011;19763;55.798;37.782;2022-09-09T15:44:10;3.55;;;2.55;;
33421;SDS011;19763;55.798;37.782;2022-09-09T15:46:40;3.33;;;2.20;;
33421;SDS011;19763;55.798;37.782;2022-09-09T15:49:18;5.53;;;2.20;;
33421;SDS011;19763;55.798;37.782;2022-09-09T15:51:50;3.78;;;1.70;;
33421;SDS011;19763;55.798;37.782;2022-09-09T15:54:18;5.13;;;2.20;;
33421;SDS011;19763;55.798;37.782;2022-09-09T15:56:46;3.67;;;1.92;;
33421;SDS011;19763;55.798;37.782;2022-09-09T15:59:15;6.85;;;2.20;;
33421;SDS011;19763;55.798;37.782;2022-09-09T16:01:41;5.57;;;2.17;;
33421;SDS011;19763;55.798;37.782;2022-09-09T16:04:09;5.35;;;2.45;;
33421;SDS011;19763;55.798;37.782;2022-09-09T16:06:35;4.60;;;2.28;;
33421;SDS011;19763;55.798;37.782;2022-09-09T16:09:02;5.20;;;2.22;;
33421;SDS011;19763;55.798;37.782;2022-09-09T16:11:30;3.35;;;2.20;;
33421;SDS011;19763;55.798;37.782;2022-09-09T16:13:58;10.23;;;3.40;;
33421;SDS011;19763;55.798;37.782;2022-09-09T16:16:25;8.52;;;3.10;;
33421;SDS011;19763;55.798;37.782;2022-09-09T16:18:54;7.30;;;3.10;;
33421;SDS011;19763;55.798;37.782;2022-09-09T16:21:22;5.60;;;3.00;;
33421;SDS011;19763;55.798;37.782;2022-09-09T16:23:50;7.78;;;3.42;;
33421;SDS011;19763;55.798;37.782;2022-09-09T16:26:18;6.72;;;3.10;;
33421;SDS011;19763;55.798;37.782;2022-09-09T16:28:45;5.75;;;2.40;;
33421;SDS011;19763;55.798;37.782;2022-09-09T16:31:15;8.75;;;2.88;;
33421;SDS011;19763;55.798;37.782;2022-09-09T16:33:45;7.13;;;2.60;;
33421;SDS011;19763;55.798;37.782;2022-09-09T16:36:13;8.80;;;3.42;;
33421;SDS011;19763;55.798;37.782;2022-09-09T16:38:41;7.05;;;2.70;;
33421;SDS011;19763;55.798;37.782;2022-09-09T16:41:11;18.05;;;11.20;;
33421;SDS011;19763;55.798;37.782;2022-09-09T16:43:39;9.15;;;5.47;;
33421;SDS011;19763;55.798;37.782;2022-09-09T16:48:44;10.35;;;3.50;;
33421;SDS011;19763;55.798;37.782;2022-09-09T16:51:15;11.43;;;3.90;;
33421;SDS011;19763;55.798;37.782;2022-09-09T16:53:49;7.72;;;3.53;;
33421;SDS011;19763;55.798;37.782;2022-09-09T16:56:17;7.15;;;3.78;;
33421;SDS011;19763;55.798;37.782;2022-09-09T16:58:49;12.40;;;5.32;;
33421;SDS011;19763;55.798;37.782;2022-09-09T17:01:28;7.63;;;3.90;;
33421;SDS011;19763;55.798;37.782;2022-09-09T17:03:57;7.30;;;3.85;;
33421;SDS011;19763;55.798;37.782;2022-09-09T17:06:25;10.40;;;5.70;;
33421;SDS011;19763;55.798;37.782;2022-09-09T17:08:58;10.07;;;4.15;;
33421;SDS011;19763;55.798;37.782;2022-09-09T17:11:26;9.20;;;3.80;;
33421;SDS011;19763;55.798;37.782;2022-09-09T17:13:53;9.05;;;4.05;;
33421;SDS011;19763;55.798;37.782;2022-09-09T17:16:20;10.18;;;4.38;;
33421;SDS011;19763;55.798;37.782;2022-09-09T17:18:50;12.55;;;5.28;;
33421;SDS011;19763;55.798;37.782;2022-09-09T17:21:18;11.40;;;4.82;;
33421;SDS011;19763;55.798;37.782;2022-09-09T17:23:45;12.68;;;4.55;;
33421;SDS011;19763;55.798;37.782;2022-09-09T17:26:12;15.27;;;5.32;;
33421;SDS011;19763;55.798;37.782;2022-09-09T17:28:40;16.45;;;5.30;;
33421;SDS011;19763;55.798;37.782;2022-09-09T17:31:07;15.45;;;5.38;;
33421;SDS011;19763;55.798;37.782;2022-09-09T17:33:35;19.95;;;5.53;;
33421;SDS011;19763;55.798;37.782;2022-09-09T17:38:35;17.38;;;5.63;;
33421;SDS011;19763;55.798;37.782;2022-09-09T17:41:05;10.20;;;5.22;;
33421;SDS011;19763;55.798;37.782;2022-09-09T17:43:31;11.05;;;5.28;;
33421;SDS011;19763;55.798;37.782;2022-09-09T17:48:37;9.32;;;5.38;;
33421;SDS011;19763;55.798;37.782;2022-09-09T17:51:05;14.98;;;5.45;;
33421;SDS011;19763;55.798;37.782;2022-09-09T17:53:41;10.15;;;5.50;;
33421;SDS011;19763;55.798;37.782;2022-09-09T17:56:09;11.23;;;5.78;;
33421;SDS011;19763;55.798;37.782;2022-09-09T17:58:36;15.20;;;7.00;;
33421;SDS011;19763;55.798;37.782;2022-09-09T18:01:03;10.25;;;6.10;;
33421;SDS011;19763;55.798;37.782;2022-09-09T18:03:37;10.88;;;5.78;;
33421;SDS011;19763;55.798;37.782;2022-09-09T18:06:08;13.00;;;6.00;;
33421;SDS011;19763;55.798;37.782;2022-09-09T18:08:40;14.32;;;5.97;;
33421;SDS011;19763;55.798;37.782;2022-09-09T18:11:07;13.55;;;6.80;;
33421;SDS011;19763;55.798;37.782;2022-09-09T18:13:34;13.82;;;7.10;;
33421;SDS011;19763;55.798;37.782;2022-09-09T18:16:00;7.65;;;5.43;;
33421;SDS011;19763;55.798;37.782;2022-09-09T18:18:26;15.32;;;6.97;;
33421;SDS011;19763;55.798;37.782;2022-09-09T18:21:26;11.02;;;6.50;;
33421;SDS011;19763;55.798;37.782;2022-09-09T18:23:47;13.50;;;7.20;;
33421;SDS011;19763;55.798;37.782;2022-09-09T18:26:17;14.68;;;7.15;;
33421;SDS011;19763;55.798;37.782;2022-09-09T18:28:48;15.02;;;6.60;;
33421;SDS011;19763;55.798;37.782;2022-09-09T18:31:16;18.17;;;8.48;;
33421;SDS011;19763;55.798;37.782;2022-09-09T18:33:43;11.75;;;6.25;;
33421;SDS011;19763;55.798;37.782;2022-09-09T18:36:12;14.57;;;6.90;;
33421;SDS011;19763;55.798;37.782;2022-09-09T18:38:40;10.82;;;6.55;;
33421;SDS011;19763;55.798;37.782;2022-09-09T18:41:16;13.35;;;6.13;;
33421;SDS011;19763;55.798;37.782;2022-09-09T18:43:47;19.20;;;7.03;;
33421;SDS011;19763;55.798;37.782;2022-09-09T18:46:14;12.65;;;6.15;;
33421;SDS011;19763;55.798;37.782;2022-09-09T18:48:41;12.18;;;6.65;;
33421;SDS011;19763;55.798;37.782;2022-09-09T18:51:10;12.98;;;7.22;;
33421;SDS011;19763;55.798;37.782;2022-09-09T18:53:37;12.88;;;7.50;;
33421;SDS011;19763;55.798;37.782;2022-09-09T18:56:06;16.23;;;6.95;;
33421;SDS011;19763;55.798;37.782;2022-09-09T18:58:34;19.35;;;7.30;;
33421;SDS011;19763;55.798;37.782;2022-09-09T19:01:00;15.85;;;7.53;;
33421;SDS011;19763;55.798;37.782;2022-09-09T19:03:28;16.05;;;7.65;;
33421;SDS011;19763;55.798;37.782;2022-09-09T19:06:02;14.93;;;7.72;;
33421;SDS011;19763;55.798;37.782;2022-09-09T19:08:29;12.80;;;7.22;;
33421;SDS011;19763;55.798;37.782;2022-09-09T19:10:55;14.52;;;7.68;;
33421;SDS011;19763;55.798;37.782;2022-09-09T19:13:20;18.30;;;8.30;;
33421;SDS011;19763;55.798;37.782;2022-09-09T19:15:46;15.02;;;7.22;;
33421;SDS011;19763;55.798;37.782;2022-09-09T19:18:11;14.00;;;7.70;;
33421;SDS011;19763;55.798;37.782;2022-09-09T19:20:37;19.77;;;8.05;;
33421;SDS011;19763;55.798;37.782;2022-09-09T19:23:03;16.38;;;8.45;;
33421;SDS011;19763;55.798;37.782;2022-09-09T19:25:33;15.65;;;8.63;;
33421;SDS011;19763;55.798;37.782;2022-09-09T19:28:02;17.30;;;8.07;;
33421;SDS011;19763;55.798;37.782;2022-09-09T19:30:28;18.02;;;8.48;;
33421;SDS011;19763;55.798;37.782;2022-09-09T19:32:54;14.95;;;8.07;;
33421;SDS011;19763;55.798;37.782;2022-09-09T19:35:20;19.08;;;8.10;;
33421;SDS011;19763;55.798;37.782;2022-09-09T19:37:46;15.45;;;8.52;;
33421;SDS011;19763;55.798;37.782;2022-09-09T19:40:12;17.70;;;8.82;;
33421;SDS011;19763;55.798;37.782;2022-09-09T19:42:38;19.13;;;8.70;;
33421;SDS011;19763;55.798;37.782;2022-09-09T19:45:05;17.65;;;8.80;;
33421;SDS011;19763;55.798;37.782;2022-09-09T19:47:32;17.40;;;10.20;;
33421;SDS011;19763;55.798;37.782;2022-09-09T19:49:57;18.17;;;9.07;;
33421;SDS011;19763;55.798;37.782;2022-09-09T19:52:23;19.17;;;8.90;;
33421;SDS011;19763;55.798;37.782;2022-09-09T19:54:49;19.80;;;9.15;;
33421;SDS011;19763;55.798;37.782;2022-09-09T19:57:14;15.95;;;9.30;;
33421;SDS011;19763;55.798;37.782;2022-09-09T19:59:40;28.75;;;16.38;;
33421;SDS011;19763;55.798;37.782;2022-09-09T20:02:05;18.85;;;9.73;;
33421;SDS011;19763;55.798;37.782;2022-09-09T20:04:31;21.48;;;9.93;;
33421;SDS011;19763;55.798;37.782;2022-09-09T20:06:59;18.60;;;10.10;;
33421;SDS011;19763;55.798;37.782;2022-09-09T20:09:24;20.17;;;10.55;;
33421;SDS011;19763;55.798;37.782;2022-09-09T20:11:51;12.70;;;9.15;;
33421;SDS011;19763;55.798;37.782;2022-09-09T20:14:17;17.65;;;9.57;;
33421;SDS011;19763;55.798;37.782;2022-09-09T20:16:43;16.05;;;9.93;;
33421;SDS011;19763;55.798;37.782;2022-09-09T20:19:10;16.00;;;9.50;;
33421;SDS011;19763;55.798;37.782;2022-09-09T20:21:38;22.42;;;10.20;;
33421;SDS011;19763;55.798;37.782;2022-09-09T20:24:09;19.38;;;9.30;;
33421;SDS011;19763;55.798;37.782;2022-09-09T20:26:37;21.08;;;10.07;;
33421;SDS011;19763;55.798;37.782;2022-09-09T20:29:04;19.02;;;9.45;;
33421;SDS011;19763;55.798;37.782;2022-09-09T20:31:35;15.40;;;9.00;;
33421;SDS011;19763;55.798;37.782;2022-09-09T20:34:04;20.05;;;9.23;;
33421;SDS011;19763;55.798;37.782;2022-09-09T20:36:32;16.77;;;9.70;;
33421;SDS011;19763;55.798;37.782;2022-09-09T20:41:27;22.25;;;9.55;;
33421;SDS011;19763;55.798;37.782;2022-09-09T20:43:56;18.52;;;9.90;;
33421;SDS011;19763;55.798;37.782;2022-09-09T20:46:22;22.23;;;9.75;;
33421;SDS011;19763;55.798;37.782;2022-09-09T20:48:50;14.57;;;9.50;;
33421;SDS011;19763;55.798;37.782;2022-09-09T20:51:16;17.67;;;9.90;;
33421;SDS011;19763;55.798;37.782;2022-09-09T20:53:44;16.92;;;9.25;;
33421;SDS011;19763;55.798;37.782;2022-09-09T20:56:11;15.95;;;9.27;;
33421;SDS011;19763;55.798;37.782;2022-09-09T20:58:41;16.67;;;9.40;;
33421;SDS011;19763;55.798;37.782;2022-09-09T21:01:10;17.58;;;9.10;;
33421;SDS011;19763;55.798;37.782;2022-09-09T21:03:39;18.55;;;10.27;;
33421;SDS011;19763;55.798;37.782;2022-09-09T21:06:05;17.60;;;10.02;;
33421;SDS011;19763;55.798;37.782;2022-09-09T21:08:32;15.65;;;9.40;;
33421;SDS011;19763;55.798;37.782;2022-09-09T21:10:59;16.88;;;8.82;;
33421;SDS011;19763;55.798;37.782;2022-09-09T21:13:29;14.77;;;9.63;;
33421;SDS011;19763;55.798;37.782;2022-09-09T21:15:56;18.23;;;9.50;;
33421;SDS011;19763;55.798;37.782;2022-09-09T21:18:21;12.07;;;8.43;;
33421;SDS011;19763;55.798;37.782;2022-09-09T21:20:47;15.93;;;9.82;;
33421;SDS011;19763;55.798;37.782;2022-09-09T21:23:14;17.35;;;10.00;;
33421;SDS011;19763;55.798;37.782;2022-09-09T21:25:41;16.98;;;10.52;;
33421;SDS011;19763;55.798;37.782;2022-09-09T21:28:07;18.67;;;10.38;;
33421;SDS011;19763;55.798;37.782;2022-09-09T21:30:33;23.02;;;10.52;;
33421;SDS011;19763;55.798;37.782;2022-09-09T21:33:00;19.00;;;10.60;;
33421;SDS011;19763;55.798;37.782;2022-09-09T21:35:26;18.52;;;10.93;;
33421;SDS011;19763;55.798;37.782;2022-09-09T21:37:52;20.25;;;10.18;;
33421;SDS011;19763;55.798;37.782;2022-09-09T21:40:18;19.67;;;10.15;;
33421;SDS011;19763;55.798;37.782;2022-09-09T21:42:45;17.95;;;9.45;;
33421;SDS011;19763;55.798;37.782;2022-09-09T21:45:11;20.45;;;11.05;;
33421;SDS011;19763;55.798;37.782;2022-09-09T21:47:38;17.33;;;9.63;;
33421;SDS011;19763;55.798;37.782;2022-09-09T21:50:04;25.48;;;10.20;;
33421;SDS011;19763;55.798;37.782;2022-09-09T21:52:30;17.50;;;8.93;;
33421;SDS011;19763;55.798;37.782;2022-09-09T21:54:55;14.57;;;8.20;;
33421;SDS011;19763;55.798;37.782;2022-09-09T21:57:22;19.23;;;9.95;;
33421;SDS011;19763;55.798;37.782;2022-09-09T21:59:47;18.75;;;9.98;;
33421;SDS011;19763;55.798;37.782;2022-09-09T22:02:13;15.77;;;9.45;;
33421;SDS011;19763;55.798;37.782;2022-09-09T22:04:40;14.85;;;8.73;;
33421;SDS011;19763;55.798;37.782;2022-09-09T22:07:07;12.18;;;8.77;;
33421;SDS011;19763;55.798;37.782;2022-09-09T22:09:33;17.55;;;9.07;;
33421;SDS011;19763;55.798;37.782;2022-09-09T22:11:59;12.63;;;9.27;;
33421;SDS011;19763;55.798;37.782;2022-09-09T22:14:24;15.40;;;8.82;;
33421;SDS011;19763;55.798;37.782;2022-09-09T22:16:50;13.52;;;8.75;;
33421;SDS011;19763;55.798;37.782;2022-09-09T22:19:16;15.00;;;8.82;;
33421;SDS011;19763;55.798;37.782;2022-09-09T22:21:41;12.57;;;8.25;;
33421;SDS011;19763;55.798;37.782;2022-09-09T22:24:07;12.70;;;7.93;;
33421;SDS011;19763;55.798;37.782;2022-09-09T22:26:34;15.88;;;8.93;;
33421;SDS011;19763;55.798;37.782;2022-09-09T22:29:01;13.95;;;9.48;;
33421;SDS011;19763;55.798;37.782;2022-09-09T22:31:28;14.68;;;8.30;;
33421;SDS011;19763;55.798;37.782;2022-09-09T22:33:53;18.77;;;9.23;;
33421;SDS011;19763;55.798;37.782;2022-09-09T22:36:19;14.52;;;8.85;;
33421;SDS011;19763;55.798;37.782;2022-09-09T22:38:49;15.65;;;8.73;;
33421;SDS011;19763;55.798;37.782;2022-09-09T22:41:16;17.38;;;9.00;;
33421;SDS011;19763;55.798;37.782;2022-09-09T22:43:43;12.68;;;8.00;;
33421;SDS011;19763;55.798;37.782;2022-09-09T22:46:09;19.42;;;9.05;;
33421;SDS011;19763;55.798;37.782;2022-09-09T22:48:36;19.40;;;9.18;;
33421;SDS011;19763;55.798;37.782;2022-09-09T22:51:03;16.15;;;9.45;;
33421;SDS011;19763;55.798;37.782;2022-09-09T22:53:30;14.18;;;9.27;;
33421;SDS011;19763;55.798;37.782;2022-09-09T22:56:01;16.80;;;10.18;;
33421;SDS011;19763;55.798;37.782;2022-09-09T22:58:29;15.88;;;10.40;;
33421;SDS011;19763;55.798;37.782;2022-09-09T23:00:56;17.67;;;11.23;;
33421;SDS011;19763;55.798;37.782;2022-09-09T23:03:29;25.13;;;11.30;;
33421;SDS011;19763;55.798;37.782;2022-09-09T23:05:58;16.83;;;10.43;;
33421;SDS011;19763;55.798;37.782;2022-09-09T23:08:27;18.00;;;10.93;;
33421;SDS011;19763;55.798;37.782;2022-09-09T23:11:09;19.60;;;10.63;;
33421;SDS011;19763;55.798;37.782;2022-09-09T23:13:40;17.45;;;11.02;;
33421;SDS011;19763;55.798;37.782;2022-09-09T23:16:10;19.67;;;10.43;;
33421;SDS011;19763;55.798;37.782;2022-09-09T23:18:40;18.83;;;10.07;;
33421;SDS011;19763;55.798;37.782;2022-09-09T23:21:08;19.80;;;10.70;;
33421;SDS011;19763;55.798;37.782;2022-09-09T23:23:35;19.90;;;10.02;;
33421;SDS011;19763;55.798;37.782;2022-09-09T23:26:06;16.95;;;10.07;;
33421;SDS011;19763;55.798;37.782;2022-09-09T23:28:33;15.52;;;9.68;;
33421;SDS011;19763;55.798;37.782;2022-09-09T23:31:01;16.92;;;10.18;;
33421;SDS011;19763;55.798;37.782;2022-09-09T23:33:27;18.45;;;10.25;;
33421;SDS011;19763;55.798;37.782;2022-09-09T23:36:03;16.08;;;9.63;;
33421;SDS011;19763;55.798;37.782;2022-09-09T23:38:34;21.23;;;9.73;;
33421;SDS011;19763;55.798;37.782;2022-09-09T23:41:02;16.75;;;10.15;;
33421;SDS011;19763;55.798;37.782;2022-09-09T23:43:29;18.65;;;9.93;;
33421;SDS011;19763;55.798;37.782;2022-09-09T23:45:55;15.85;;;10.02;;
33421;SDS011;19763;55.798;37.782;2022-09-09T23:48:21;18.10;;;10.75;;
33421;SDS011;19763;55.798;37.782;2022-09-09T23:50:47;16.20;;;9.60;;
33421;SDS011;19763;55.798;37.782;2022-09-09T23:53:16;17.25;;;10.25;;
33421;SDS011;19763;55.798;37.782;2022-09-09T23:55:41;18.25;;;10.45;;
33421;SDS011;19763;55.798;37.782;2022-09-09T23:58:08;15.88;;;9.93;;
